Lenore, West Virginia
Current Conditions -  °F | °C
As of 11:35 PM on Saturday 22 Nov 2014 (Local Time) from KSJS Reporting Station
Scattered Clouds Scattered Clouds  
Wind Chill: 52°   Ceiling: Unl
Heat Index: 52°   Visibility: 10mi
Dew Point: 25°   Wind: 8mph
Humidity: 34%   Direction: 180°S
Pressure: 30.14"   Gusts: NA
Location:  37.8°N, 82.29°W
Report Text: KSJS 230435Z AUTO 18007KT 10SM SCT085 11/M04 A3014 RMK AO2 T01131041
Loading
Personal Weather Stations






























Interactive Weather Map New forecast layout! Learn more

10-Day Weather Forecast

Advertisements
Track Severe Weather on mobile